sensor_id;sensor_type;location;lat;lon;timestamp;pressure;altitude;pressure_sealevel;temperature;humidity
64158;BME280;50449;51.528;5.076;2023-04-12T00:00:58;100396.78;;;17.08;48.98
64158;BME280;50449;51.528;5.076;2023-04-12T00:03:25;100383.72;;;17.05;49.47
64158;BME280;50449;51.528;5.076;2023-04-12T00:05:51;100377.47;;;17.04;49.23
64158;BME280;50449;51.528;5.076;2023-04-12T00:08:20;100371.47;;;17.02;49.03
64158;BME280;50449;51.528;5.076;2023-04-12T00:10:50;100354.06;;;16.98;49.26
64158;BME280;50449;51.528;5.076;2023-04-12T00:13:16;100357.63;;;16.99;49.23
64158;BME280;50449;51.528;5.076;2023-04-12T00:15:42;100350.84;;;16.96;49.83
64158;BME280;50449;51.528;5.076;2023-04-12T00:18:07;100346.47;;;16.95;49.24
64158;BME280;50449;51.528;5.076;2023-04-12T00:20:32;100327.69;;;16.94;49.60
64158;BME280;50449;51.528;5.076;2023-04-12T00:22:58;100324.97;;;16.94;49.67
64158;BME280;50449;51.528;5.076;2023-04-12T00:25:23;100302.63;;;16.92;49.58
64158;BME280;50449;51.528;5.076;2023-04-12T00:27:49;100293.91;;;16.90;49.66
64158;BME280;50449;51.528;5.076;2023-04-12T00:30:14;100295.84;;;16.89;49.45
64158;BME280;50449;51.528;5.076;2023-04-12T00:32:40;100283.88;;;16.85;49.30
64158;BME280;50449;51.528;5.076;2023-04-12T00:35:05;100276.81;;;16.84;49.49
64158;BME280;50449;51.528;5.076;2023-04-12T00:37:31;100270.03;;;16.81;49.40
64158;BME280;50449;51.528;5.076;2023-04-12T00:39:57;100271.13;;;16.80;49.39
64158;BME280;50449;51.528;5.076;2023-04-12T00:42:22;100266.78;;;16.79;49.43
64158;BME280;50449;51.528;5.076;2023-04-12T00:44:47;100246.09;;;16.78;49.50
64158;BME280;50449;51.528;5.076;2023-04-12T00:47:13;100237.34;;;16.76;49.64
64158;BME280;50449;51.528;5.076;2023-04-12T00:49:38;100236.03;;;16.74;49.71
64158;BME280;50449;51.528;5.076;2023-04-12T00:52:06;100232.50;;;16.73;49.61
64158;BME280;50449;51.528;5.076;2023-04-12T00:54:33;100215.63;;;16.71;49.55
64158;BME280;50449;51.528;5.076;2023-04-12T00:56:59;100210.44;;;16.70;49.45
64158;BME280;50449;51.528;5.076;2023-04-12T00:59:25;100196.28;;;16.67;49.54
64158;BME280;50449;51.528;5.076;2023-04-12T01:01:51;100186.50;;;16.66;49.71
64158;BME280;50449;51.528;5.076;2023-04-12T01:04:17;100194.97;;;16.65;49.67
64158;BME280;50449;51.528;5.076;2023-04-12T01:07:13;100183.84;;;16.61;49.61
64158;BME280;50449;51.528;5.076;2023-04-12T01:15:36;100146.94;;;16.50;49.97
64158;BME280;50449;51.528;5.076;2023-04-12T01:18:08;100146.13;;;16.50;49.80
64158;BME280;50449;51.528;5.076;2023-04-12T01:20:40;100140.69;;;16.50;49.64
64158;BME280;50449;51.528;5.076;2023-04-12T01:23:25;100139.88;;;16.49;49.90
64158;BME280;50449;51.528;5.076;2023-04-12T01:26:08;100124.13;;;16.46;49.88
64158;BME280;50449;51.528;5.076;2023-04-12T01:28:37;100127.66;;;16.47;49.80
64158;BME280;50449;51.528;5.076;2023-04-12T01:31:06;100112.69;;;16.44;49.65
64158;BME280;50449;51.528;5.076;2023-04-12T01:33:36;100105.31;;;16.44;49.94
64158;BME280;50449;51.528;5.076;2023-04-12T01:36:21;100098.34;;;16.38;49.87
64158;BME280;50449;51.528;5.076;2023-04-12T01:38:48;100092.09;;;16.38;49.71
64158;BME280;50449;51.528;5.076;2023-04-12T01:41:14;100095.63;;;16.38;49.99
64158;BME280;50449;51.528;5.076;2023-04-12T01:43:45;100094.00;;;16.37;49.81
64158;BME280;50449;51.528;5.076;2023-04-12T01:46:19;100087.22;;;16.35;49.97
64158;BME280;50449;51.528;5.076;2023-04-12T01:48:51;100084.19;;;16.36;49.72
64158;BME280;50449;51.528;5.076;2023-04-12T01:51:30;100066.81;;;16.32;49.83
64158;BME280;50449;51.528;5.076;2023-04-12T01:54:12;100059.75;;;16.31;50.13
64158;BME280;50449;51.528;5.076;2023-04-12T01:56:41;100048.34;;;16.29;49.76
64158;BME280;50449;51.528;5.076;2023-04-12T01:59:09;100042.88;;;16.29;50.22
64158;BME280;50449;51.528;5.076;2023-04-12T02:01:37;100040.44;;;16.28;49.85
64158;BME280;50449;51.528;5.076;2023-04-12T02:04:03;100027.13;;;16.26;49.88
64158;BME280;50449;51.528;5.076;2023-04-12T02:06:33;100018.44;;;16.24;50.10
64158;BME280;50449;51.528;5.076;2023-04-12T02:09:03;100014.13;;;16.23;50.29
64158;BME280;50449;51.528;5.076;2023-04-12T02:11:32;100013.59;;;16.21;50.08
64158;BME280;50449;51.528;5.076;2023-04-12T02:13:57;100002.19;;;16.19;50.25
64158;BME280;50449;51.528;5.076;2023-04-12T02:16:23;100004.91;;;16.19;50.07
64158;BME280;50449;51.528;5.076;2023-04-12T02:18:49;99998.66;;;16.18;49.88
64158;BME280;50449;51.528;5.076;2023-04-12T02:21:15;99989.16;;;16.16;50.23
64158;BME280;50449;51.528;5.076;2023-04-12T02:23:40;99980.47;;;16.14;50.01
64158;BME280;50449;51.528;5.076;2023-04-12T02:26:08;99966.84;;;16.14;50.31
64158;BME280;50449;51.528;5.076;2023-04-12T02:28:34;99960.59;;;16.13;50.33
64158;BME280;50449;51.528;5.076;2023-04-12T02:31:01;99960.88;;;16.12;50.30
64158;BME280;50449;51.528;5.076;2023-04-12T02:33:26;99956.84;;;16.09;50.31
64158;BME280;50449;51.528;5.076;2023-04-12T02:35:53;99939.69;;;16.09;50.40
64158;BME280;50449;51.528;5.076;2023-04-12T02:38:18;99936.47;;;16.07;50.22
64158;BME280;50449;51.528;5.076;2023-04-12T02:40:44;99929.41;;;16.06;50.29
64158;BME280;50449;51.528;5.076;2023-04-12T02:43:09;99919.59;;;16.05;50.07
64158;BME280;50449;51.528;5.076;2023-04-12T02:45:35;99906.28;;;16.03;50.07
64158;BME280;50449;51.528;5.076;2023-04-12T02:48:01;99910.44;;;16.00;50.33
64158;BME280;50449;51.528;5.076;2023-04-12T02:50:27;99891.34;;;16.00;50.33
64158;BME280;50449;51.528;5.076;2023-04-12T02:52:52;99887.31;;;15.98;50.26
64158;BME280;50449;51.528;5.076;2023-04-12T02:55:18;99890.03;;;15.98;50.50
64158;BME280;50449;51.528;5.076;2023-04-12T02:57:44;99879.94;;;15.98;50.19
64158;BME280;50449;51.528;5.076;2023-04-12T03:00:13;99880.56;;;15.95;50.49
64158;BME280;50449;51.528;5.076;2023-04-12T03:02:40;99875.09;;;15.95;50.55
64158;BME280;50449;51.528;5.076;2023-04-12T03:05:06;99866.41;;;15.93;50.47
64158;BME280;50449;51.528;5.076;2023-04-12T03:07:32;99867.50;;;15.92;50.50
64158;BME280;50449;51.528;5.076;2023-04-12T03:09:57;99865.91;;;15.91;50.05
64158;BME280;50449;51.528;5.076;2023-04-12T03:12:23;99856.41;;;15.89;50.19
64158;BME280;50449;51.528;5.076;2023-04-12T03:14:48;99865.41;;;15.89;50.49
64158;BME280;50449;51.528;5.076;2023-04-12T03:17:14;99857.84;;;15.86;50.57
64158;BME280;50449;51.528;5.076;2023-04-12T03:19:40;99853.50;;;15.85;50.57
64158;BME280;50449;51.528;5.076;2023-04-12T03:22:05;99844.50;;;15.85;50.56
64158;BME280;50449;51.528;5.076;2023-04-12T03:24:31;99840.97;;;15.84;50.25
64158;BME280;50449;51.528;5.076;2023-04-12T03:26:58;99847.53;;;15.83;50.65
64158;BME280;50449;51.528;5.076;2023-04-12T03:29:23;99833.41;;;15.81;50.32
64158;BME280;50449;51.528;5.076;2023-04-12T03:31:49;99824.13;;;15.82;50.46
64158;BME280;50449;51.528;5.076;2023-04-12T03:34:14;99820.91;;;15.80;50.17
64158;BME280;50449;51.528;5.076;2023-04-12T03:36:40;99817.38;;;15.79;50.68
64158;BME280;50449;51.528;5.076;2023-04-12T03:39:06;99815.47;;;15.80;50.60
64158;BME280;50449;51.528;5.076;2023-04-12T03:41:34;99805.66;;;15.79;50.38
64158;BME280;50449;51.528;5.076;2023-04-12T03:43:59;99804.34;;;15.76;50.42
64158;BME280;50449;51.528;5.076;2023-04-12T03:46:25;99796.50;;;15.75;50.55
64158;BME280;50449;51.528;5.076;2023-04-12T03:48:50;99786.72;;;15.74;50.51
64158;BME280;50449;51.528;5.076;2023-04-12T03:51:16;99784.31;;;15.72;50.65
64158;BME280;50449;51.528;5.076;2023-04-12T03:53:42;99778.03;;;15.72;50.47
64158;BME280;50449;51.528;5.076;2023-04-12T03:56:07;99776.41;;;15.71;50.65
64158;BME280;50449;51.528;5.076;2023-04-12T03:58:34;99772.06;;;15.70;50.66
64158;BME280;50449;51.528;5.076;2023-04-12T04:01:02;99762.25;;;15.69;50.39
64158;BME280;50449;51.528;5.076;2023-04-12T04:03:31;99751.66;;;15.67;50.71
64158;BME280;50449;51.528;5.076;2023-04-12T04:06:02;99750.06;;;15.66;50.56
64158;BME280;50449;51.528;5.076;2023-04-12T04:08:27;99744.72;;;15.61;50.67
64158;BME280;50449;51.528;5.076;2023-04-12T04:10:55;99737.97;;;15.58;50.76
64158;BME280;50449;51.528;5.076;2023-04-12T04:13:20;99739.06;;;15.57;50.67
64158;BME280;50449;51.528;5.076;2023-04-12T04:15:49;99737.44;;;15.56;50.77
64158;BME280;50449;51.528;5.076;2023-04-12T04:18:15;99724.63;;;15.57;50.63
64158;BME280;50449;51.528;5.076;2023-04-12T04:20:41;99735.53;;;15.57;50.70
64158;BME280;50449;51.528;5.076;2023-04-12T04:23:06;99723.03;;;15.56;50.62
64158;BME280;50449;51.528;5.076;2023-04-12T04:25:34;99734.22;;;15.54;50.73
64158;BME280;50449;51.528;5.076;2023-04-12T04:28:04;99720.59;;;15.54;50.63
64158;BME280;50449;51.528;5.076;2023-04-12T04:30:30;99734.53;;;15.53;50.84
64158;BME280;50449;51.528;5.076;2023-04-12T04:32:58;99722.84;;;15.52;51.01
64158;BME280;50449;51.528;5.076;2023-04-12T04:35:23;99712.25;;;15.51;50.85
64158;BME280;50449;51.528;5.076;2023-04-12T04:37:49;99717.69;;;15.51;50.95
64158;BME280;50449;51.528;5.076;2023-04-12T04:40:17;99711.44;;;15.50;51.01
64158;BME280;50449;51.528;5.076;2023-04-12T04:42:45;99706.28;;;15.49;50.94
64158;BME280;50449;51.528;5.076;2023-04-12T04:45:10;99706.59;;;15.47;50.89
64158;BME280;50449;51.528;5.076;2023-04-12T04:47:39;99704.97;;;15.46;50.98
64158;BME280;50449;51.528;5.076;2023-04-12T04:50:05;99704.97;;;15.46;50.85
64158;BME280;50449;51.528;5.076;2023-04-12T04:52:31;99708.81;;;15.45;50.79
64158;BME280;50449;51.528;5.076;2023-04-12T04:54:57;99703.66;;;15.44;50.93
64158;BME280;50449;51.528;5.076;2023-04-12T04:57:23;99702.84;;;15.43;50.95
64158;BME280;50449;51.528;5.076;2023-04-12T04:59:49;99710.50;;;15.41;51.07
64158;BME280;50449;51.528;5.076;2023-04-12T05:02:15;99710.00;;;15.39;51.10
64158;BME280;50449;51.528;5.076;2023-04-12T05:04:43;99707.28;;;15.39;51.03
64158;BME280;50449;51.528;5.076;2023-04-12T05:07:08;99703.75;;;15.39;50.47
64158;BME280;50449;51.528;5.076;2023-04-12T05:09:35;99698.31;;;15.39;51.22
64158;BME280;50449;51.528;5.076;2023-04-12T05:12:00;99689.63;;;15.36;50.92
64158;BME280;50449;51.528;5.076;2023-04-12T05:14:25;99691.56;;;15.36;50.82
64158;BME280;50449;51.528;5.076;2023-04-12T05:16:51;99699.72;;;15.36;51.21
64158;BME280;50449;51.528;5.076;2023-04-12T05:19:16;99695.41;;;15.35;50.87
64158;BME280;50449;51.528;5.076;2023-04-12T05:21:41;99686.41;;;15.34;51.11
64158;BME280;50449;51.528;5.076;2023-04-12T05:24:07;99689.44;;;15.33;51.26
64158;BME280;50449;51.528;5.076;2023-04-12T05:26:32;99685.91;;;15.32;51.07
64158;BME280;50449;51.528;5.076;2023-04-12T05:28:58;99685.91;;;15.32;51.23
64158;BME280;50449;51.528;5.076;2023-04-12T05:31:25;99678.56;;;15.33;51.06
64158;BME280;50449;51.528;5.076;2023-04-12T05:33:52;99676.94;;;15.32;50.94
64158;BME280;50449;51.528;5.076;2023-04-12T05:36:18;99676.13;;;15.31;51.25
64158;BME280;50449;51.528;5.076;2023-04-12T05:38:44;99680.78;;;15.31;51.24
64158;BME280;50449;51.528;5.076;2023-04-12T05:41:09;99682.19;;;15.28;51.33
64158;BME280;50449;51.528;5.076;2023-04-12T05:43:35;99681.38;;;15.28;51.26
64158;BME280;50449;51.528;5.076;2023-04-12T05:46:02;99683.59;;;15.26;51.29
64158;BME280;50449;51.528;5.076;2023-04-12T05:48:27;99692.53;;;15.26;51.20
64158;BME280;50449;51.528;5.076;2023-04-12T05:50:53;99689.03;;;15.26;51.14
64158;BME280;50449;51.528;5.076;2023-04-12T05:53:19;99694.75;;;15.24;50.95
64158;BME280;50449;51.528;5.076;2023-04-12T05:55:45;99694.75;;;15.24;51.36
64158;BME280;50449;51.528;5.076;2023-04-12T05:58:10;99704.03;;;15.23;51.02
64158;BME280;50449;51.528;5.076;2023-04-12T06:00:39;99697.78;;;15.23;51.23
64158;BME280;50449;51.528;5.076;2023-04-12T06:03:08;99716.03;;;15.22;51.31
64158;BME280;50449;51.528;5.076;2023-04-12T06:05:34;99714.72;;;15.20;51.42
64158;BME280;50449;51.528;5.076;2023-04-12T06:08:00;99712.00;;;15.20;51.35
64158;BME280;50449;51.528;5.076;2023-04-12T06:10:26;99709.28;;;15.20;51.26
64158;BME280;50449;51.528;5.076;2023-04-12T06:12:52;99701.41;;;15.18;51.13
64158;BME280;50449;51.528;5.076;2023-04-12T06:15:17;99713.88;;;15.19;51.18
64158;BME280;50449;51.528;5.076;2023-04-12T06:17:45;99709.56;;;15.18;51.29
64158;BME280;50449;51.528;5.076;2023-04-12T06:20:10;99706.84;;;15.18;51.52
64158;BME280;50449;51.528;5.076;2023-04-12T06:22:36;99714.19;;;15.18;51.26
64158;BME280;50449;51.528;5.076;2023-04-12T06:25:02;99707.66;;;15.19;51.49
64158;BME280;50449;51.528;5.076;2023-04-12T06:27:28;99693.53;;;15.17;51.25
64158;BME280;50449;51.528;5.076;2023-04-12T06:29:53;99697.06;;;15.17;51.11
64158;BME280;50449;51.528;5.076;2023-04-12T06:32:19;99690.00;;;15.16;51.12
64158;BME280;50449;51.528;5.076;2023-04-12T06:34:44;99695.75;;;15.14;51.65
64158;BME280;50449;51.528;5.076;2023-04-12T06:37:10;99692.22;;;15.14;51.31
64158;BME280;50449;51.528;5.076;2023-04-12T06:39:35;99696.34;;;15.11;51.65
64158;BME280;50449;51.528;5.076;2023-04-12T06:42:01;99705.31;;;15.12;51.56
64158;BME280;50449;51.528;5.076;2023-04-12T06:44:27;99699.88;;;15.12;51.59
64158;BME280;50449;51.528;5.076;2023-04-12T06:46:52;99699.88;;;15.12;51.53
64158;BME280;50449;51.528;5.076;2023-04-12T06:49:18;99696.34;;;15.11;51.71
64158;BME280;50449;51.528;5.076;2023-04-12T06:51:43;99702.59;;;15.12;51.56
64158;BME280;50449;51.528;5.076;2023-04-12T06:54:10;99690.09;;;15.11;51.28
64158;BME280;50449;51.528;5.076;2023-04-12T06:56:36;99693.63;;;15.11;51.63
64158;BME280;50449;51.528;5.076;2023-04-12T06:59:01;99690.91;;;15.11;51.21
64158;BME280;50449;51.528;5.076;2023-04-12T07:01:27;99697.44;;;15.10;51.65
64158;BME280;50449;51.528;5.076;2023-04-12T07:03:52;99695.03;;;15.09;51.57
64158;BME280;50449;51.528;5.076;2023-04-12T07:06:18;99686.84;;;15.09;51.23
64158;BME280;50449;51.528;5.076;2023-04-12T07:08:43;99694.22;;;15.08;51.68
64158;BME280;50449;51.528;5.076;2023-04-12T07:11:09;99692.63;;;15.07;51.39
64158;BME280;50449;51.528;5.076;2023-04-12T07:13:34;99694.53;;;15.07;51.28
64158;BME280;50449;51.528;5.076;2023-04-12T07:16:00;99684.47;;;15.07;51.30
64158;BME280;50449;51.528;5.076;2023-04-12T07:18:25;99687.19;;;15.07;51.77
64158;BME280;50449;51.528;5.076;2023-04-12T07:20:53;99697.25;;;15.07;51.79
64158;BME280;50449;51.528;5.076;2023-04-12T07:23:19;99697.53;;;15.05;51.80
64158;BME280;50449;51.528;5.076;2023-04-12T07:25:45;99705.69;;;15.05;51.62
64158;BME280;50449;51.528;5.076;2023-04-12T07:28:10;99697.53;;;15.05;51.76
64158;BME280;50449;51.528;5.076;2023-04-12T07:30:38;99694.03;;;15.05;51.64
64158;BME280;50449;51.528;5.076;2023-04-12T07:33:03;99693.19;;;15.04;51.56
64158;BME280;50449;51.528;5.076;2023-04-12T07:35:32;99694.03;;;15.05;51.57
64158;BME280;50449;51.528;5.076;2023-04-12T07:37:58;99695.91;;;15.04;51.30
64158;BME280;50449;51.528;5.076;2023-04-12T07:40:25;99682.31;;;15.04;51.61
64158;BME280;50449;51.528;5.076;2023-04-12T07:42:51;99682.91;;;15.01;51.57
64158;BME280;50449;51.528;5.076;2023-04-12T07:45:16;99674.47;;;15.03;51.79
64158;BME280;50449;51.528;5.076;2023-04-12T07:47:41;99672.84;;;15.02;51.64
64158;BME280;50449;51.528;5.076;2023-04-12T07:50:07;99667.09;;;15.03;51.84
64158;BME280;50449;51.528;5.076;2023-04-12T07:52:33;99657.34;;;15.02;51.74
64158;BME280;50449;51.528;5.076;2023-04-12T07:54:58;99658.16;;;15.03;51.56
64158;BME280;50449;51.528;5.076;2023-04-12T07:57:26;99661.66;;;15.03;51.79
64158;BME280;50449;51.528;5.076;2023-04-12T07:59:52;99668.22;;;15.02;51.65
64158;BME280;50449;51.528;5.076;2023-04-12T08:02:17;99683.72;;;15.02;51.94
64158;BME280;50449;51.528;5.076;2023-04-12T08:04:49;99679.09;;;15.02;51.75
64158;BME280;50449;51.528;5.076;2023-04-12T08:07:15;99682.91;;;15.01;51.85
64158;BME280;50449;51.528;5.076;2023-04-12T08:09:40;99682.63;;;15.03;51.72
64158;BME280;50449;51.528;5.076;2023-04-12T08:12:06;99674.47;;;15.03;51.56
64158;BME280;50449;51.528;5.076;2023-04-12T08:14:31;99676.88;;;15.04;51.65
64158;BME280;50449;51.528;5.076;2023-04-12T08:16:57;99678.28;;;15.02;51.56
64158;BME280;50449;51.528;5.076;2023-04-12T08:19:22;99674.47;;;15.03;51.99
64158;BME280;50449;51.528;5.076;2023-04-12T08:21:48;99678.00;;;15.03;51.90
64158;BME280;50449;51.528;5.076;2023-04-12T08:24:13;99679.91;;;15.03;52.04
64158;BME280;50449;51.528;5.076;2023-04-12T08:26:38;99680.72;;;15.03;51.93
64158;BME280;50449;51.528;5.076;2023-04-12T08:29:04;99676.06;;;15.04;51.68
64158;BME280;50449;51.528;5.076;2023-04-12T08:31:30;99681.22;;;15.05;51.57
64158;BME280;50449;51.528;5.076;2023-04-12T08:33:55;99685.53;;;15.06;52.02
64158;BME280;50449;51.528;5.076;2023-04-12T08:36:22;99691.81;;;15.07;51.95
64158;BME280;50449;51.528;5.076;2023-04-12T08:38:47;99695.34;;;15.07;52.06
64158;BME280;50449;51.528;5.076;2023-04-12T08:41:16;99693.19;;;15.04;52.03
64158;BME280;50449;51.528;5.076;2023-04-12T08:43:43;99682.03;;;15.06;52.07
64158;BME280;50449;51.528;5.076;2023-04-12T08:46:13;99692.91;;;15.06;51.85
64158;BME280;50449;51.528;5.076;2023-04-12T08:48:40;99682.03;;;15.06;52.10
64158;BME280;50449;51.528;5.076;2023-04-12T08:51:08;99689.09;;;15.07;52.08
64158;BME280;50449;51.528;5.076;2023-04-12T08:53:35;99686.06;;;15.08;52.11
64158;BME280;50449;51.528;5.076;2023-04-12T08:56:01;99681.72;;;15.07;52.09
64158;BME280;50449;51.528;5.076;2023-04-12T08:58:27;99677.91;;;15.08;52.15
64158;BME280;50449;51.528;5.076;2023-04-12T09:00:54;99679.53;;;15.09;52.00
64158;BME280;50449;51.528;5.076;2023-04-12T09:03:20;99671.06;;;15.11;52.30
64158;BME280;50449;51.528;5.076;2023-04-12T09:05:45;99675.09;;;15.13;52.05
64158;BME280;50449;51.528;5.076;2023-04-12T09:08:11;99680.53;;;15.13;52.20
64158;BME280;50449;51.528;5.076;2023-04-12T09:10:37;99676.72;;;15.14;52.19
64158;BME280;50449;51.528;5.076;2023-04-12T09:13:05;99669.88;;;15.17;52.03
64158;BME280;50449;51.528;5.076;2023-04-12T09:15:32;99665.84;;;15.14;52.36
64158;BME280;50449;51.528;5.076;2023-04-12T09:18:09;99667.44;;;15.15;52.53
64158;BME280;50449;51.528;5.076;2023-04-12T09:20:35;99659.00;;;15.17;52.42
64158;BME280;50449;51.528;5.076;2023-04-12T09:23:15;99659.78;;;15.18;52.31
64158;BME280;50449;51.528;5.076;2023-04-12T09:25:42;99662.72;;;15.21;52.43
64158;BME280;50449;51.528;5.076;2023-04-12T09:30:44;99665.94;;;15.23;52.32
64158;BME280;50449;51.528;5.076;2023-04-12T09:33:12;99658.59;;;15.24;52.62
64158;BME280;50449;51.528;5.076;2023-04-12T09:35:37;99655.56;;;15.25;52.46
64158;BME280;50449;51.528;5.076;2023-04-12T09:38:09;99655.25;;;15.27;52.51
64158;BME280;50449;51.528;5.076;2023-04-12T09:40:35;99643.28;;;15.28;52.20
64158;BME280;50449;51.528;5.076;2023-04-12T09:43:02;99641.88;;;15.30;52.50
64158;BME280;50449;51.528;5.076;2023-04-12T09:45:28;99647.00;;;15.32;52.10
64158;BME280;50449;51.528;5.076;2023-04-12T09:47:56;99645.09;;;15.32;52.26
64158;BME280;50449;51.528;5.076;2023-04-12T09:50:30;99642.88;;;15.34;52.19
64158;BME280;50449;51.528;5.076;2023-04-12T09:53:02;99640.66;;;15.36;52.34
64158;BME280;50449;51.528;5.076;2023-04-12T09:55:29;99638.75;;;15.37;52.66
64158;BME280;50449;51.528;5.076;2023-04-12T09:57:56;99643.88;;;15.39;52.24
64158;BME280;50449;51.528;5.076;2023-04-12T10:00:24;99651.25;;;15.38;52.47
64158;BME280;50449;51.528;5.076;2023-04-12T10:02:53;99647.41;;;15.39;52.25
64158;BME280;50449;51.528;5.076;2023-04-12T10:05:21;99644.41;;;15.41;52.36
64158;BME280;50449;51.528;5.076;2023-04-12T10:07:49;99647.63;;;15.43;52.44
64158;BME280;50449;51.528;5.076;2023-04-12T10:10:16;99652.75;;;15.44;52.40
64158;BME280;50449;51.528;5.076;2023-04-12T10:12:43;99653.25;;;15.46;52.65
64158;BME280;50449;51.528;5.076;2023-04-12T10:15:10;99649.75;;;15.46;52.33
64158;BME280;50449;51.528;5.076;2023-04-12T10:17:52;99651.34;;;15.47;52.65
64158;BME280;50449;51.528;5.076;2023-04-12T10:20:19;99644.50;;;15.49;52.45
64158;BME280;50449;51.528;5.076;2023-04-12T10:22:47;99663.25;;;15.51;52.57
64158;BME280;50449;51.528;5.076;2023-04-12T10:25:19;99657.81;;;15.51;52.32
64158;BME280;50449;51.528;5.076;2023-04-12T10:27:45;99662.66;;;15.54;52.75
64158;BME280;50449;51.528;5.076;2023-04-12T10:30:30;99656.41;;;15.53;52.67
64158;BME280;50449;51.528;5.076;2023-04-12T10:35:28;99651.16;;;15.57;52.47
64158;BME280;50449;51.528;5.076;2023-04-12T10:38:03;99659.63;;;15.55;52.89
64158;BME280;50449;51.528;5.076;2023-04-12T10:40:31;99659.31;;;15.57;52.88
64158;BME280;50449;51.528;5.076;2023-04-12T10:45:47;99659.03;;;15.58;52.85
64158;BME280;50449;51.528;5.076;2023-04-12T10:48:28;99661.22;;;15.56;53.05
64158;BME280;50449;51.528;5.076;2023-04-12T10:51:20;99663.16;;;15.56;52.74
64158;BME280;50449;51.528;5.076;2023-04-12T10:56:38;99661.75;;;15.58;52.83
64158;BME280;50449;51.528;5.076;2023-04-12T10:59:05;99666.56;;;15.62;52.64
64158;BME280;50449;51.528;5.076;2023-04-12T11:01:31;99666.28;;;15.63;52.55
64158;BME280;50449;51.528;5.076;2023-04-12T11:04:16;99668.69;;;15.65;52.76
64158;BME280;50449;51.528;5.076;2023-04-12T11:07:20;99667.09;;;15.64;52.92
64158;BME280;50449;51.528;5.076;2023-04-12T11:09:45;99668.22;;;15.63;52.87
64158;BME280;50449;51.528;5.076;2023-04-12T11:12:14;99676.84;;;15.65;52.78
64158;BME280;50449;51.528;5.076;2023-04-12T11:14:49;99670.81;;;15.68;52.58
64158;BME280;50449;51.528;5.076;2023-04-12T11:19:42;99677.00;;;15.73;52.77
64158;BME280;50449;51.528;5.076;2023-04-12T11:22:12;99664.97;;;15.74;52.73
64158;BME280;50449;51.528;5.076;2023-04-12T11:24:58;99672.34;;;15.74;52.40
64158;BME280;50449;51.528;5.076;2023-04-12T11:27:25;99673.66;;;15.76;52.50
64158;BME280;50449;51.528;5.076;2023-04-12T11:29:53;99667.41;;;15.76;52.47
64158;BME280;50449;51.528;5.076;2023-04-12T11:32:22;99679.91;;;15.77;51.44
64158;BME280;50449;51.528;5.076;2023-04-12T11:34:48;99693.53;;;15.77;51.58
64158;BME280;50449;51.528;5.076;2023-04-12T11:37:14;99685.88;;;15.79;51.76
64158;BME280;50449;51.528;5.076;2023-04-12T11:39:43;99703.84;;;15.80;51.94
64158;BME280;50449;51.528;5.076;2023-04-12T11:42:16;99701.59;;;15.82;51.55
64158;BME280;50449;51.528;5.076;2023-04-12T11:44:45;99688.81;;;15.83;51.74
64158;BME280;50449;51.528;5.076;2023-04-12T11:47:22;99705.34;;;15.86;51.90
64158;BME280;50449;51.528;5.076;2023-04-12T11:52:14;99702.78;;;15.90;51.71
64158;BME280;50449;51.528;5.076;2023-04-12T11:54:47;99714.53;;;15.90;51.56
64158;BME280;50449;51.528;5.076;2023-04-12T11:57:15;99704.09;;;15.92;51.67
64158;BME280;50449;51.528;5.076;2023-04-12T11:59:46;99717.25;;;15.90;51.80
64158;BME280;50449;51.528;5.076;2023-04-12T12:02:13;99721.38;;;15.88;51.95
64158;BME280;50449;51.528;5.076;2023-04-12T12:04:42;99725.41;;;15.90;52.34
64158;BME280;50449;51.528;5.076;2023-04-12T12:07:10;99717.44;;;15.94;52.07
64158;BME280;50449;51.528;5.076;2023-04-12T12:09:36;99714.09;;;15.97;52.04
64158;BME280;50449;51.528;5.076;2023-04-12T12:12:01;99711.06;;;15.98;52.25
64158;BME280;50449;51.528;5.076;2023-04-12T12:14:27;99702.28;;;16.01;52.07
64158;BME280;50449;51.528;5.076;2023-04-12T12:16:54;99702.81;;;16.04;52.06
64158;BME280;50449;51.528;5.076;2023-04-12T12:21:53;99702.97;;;16.07;52.12
64158;BME280;50449;51.528;5.076;2023-04-12T12:24:21;99695.66;;;16.08;52.25
64158;BME280;50449;51.528;5.076;2023-04-12T12:26:48;99696.94;;;16.10;52.10
64158;BME280;50449;51.528;5.076;2023-04-12T12:29:17;99693.41;;;16.10;51.88
64158;BME280;50449;51.528;5.076;2023-04-12T12:31:46;99693.41;;;16.10;52.07
64158;BME280;50449;51.528;5.076;2023-04-12T12:34:13;99695.03;;;16.11;52.47
64158;BME280;50449;51.528;5.076;2023-04-12T12:36:38;99698.25;;;16.13;51.90
64158;BME280;50449;51.528;5.076;2023-04-12T12:39:08;99697.94;;;16.14;52.06
64158;BME280;50449;51.528;5.076;2023-04-12T12:41:35;99701.47;;;16.15;52.16
64158;BME280;50449;51.528;5.076;2023-04-12T12:44:01;99703.72;;;16.13;52.24
64158;BME280;50449;51.528;5.076;2023-04-12T12:46:27;99710.47;;;16.15;52.03
64158;BME280;50449;51.528;5.076;2023-04-12T12:48:53;99727.59;;;16.16;52.38
64158;BME280;50449;51.528;5.076;2023-04-12T12:51:19;99740.44;;;16.15;51.89
64158;BME280;50449;51.528;5.076;2023-04-12T12:53:45;99730.00;;;16.17;52.07
64158;BME280;50449;51.528;5.076;2023-04-12T12:56:11;99736.47;;;16.21;52.19
64158;BME280;50449;51.528;5.076;2023-04-12T12:58:38;99737.78;;;16.24;52.17
64158;BME280;50449;51.528;5.076;2023-04-12T13:01:04;99736.38;;;16.27;52.45
64158;BME280;50449;51.528;5.076;2023-04-12T13:03:30;99709.91;;;16.27;52.31
64158;BME280;50449;51.528;5.076;2023-04-12T13:05:55;99702.25;;;16.29;51.76
64158;BME280;50449;51.528;5.076;2023-04-12T13:08:22;99698.91;;;16.32;52.40
64158;BME280;50449;51.528;5.076;2023-04-12T13:10:47;99698.09;;;16.32;51.90
64158;BME280;50449;51.528;5.076;2023-04-12T13:13:13;99688.50;;;16.34;52.12
64158;BME280;50449;51.528;5.076;2023-04-12T13:15:38;99692.03;;;16.35;51.95
64158;BME280;50449;51.528;5.076;2023-04-12T13:18:04;99694.47;;;16.36;51.68
64158;BME280;50449;51.528;5.076;2023-04-12T13:20:29;99696.56;;;16.39;51.99
64158;BME280;50449;51.528;5.076;2023-04-12T13:22:55;99696.28;;;16.41;52.08